createdAt,value
2022-08-27T00:00:18.732Z,0.6
2022-08-27T00:01:27.382Z,0.7
2022-08-27T00:02:35.058Z,0.7
2022-08-27T00:03:44.744Z,1
2022-08-27T00:04:52.507Z,0.5
2022-08-27T00:06:01.163Z,0.8
2022-08-27T00:07:10.820Z,0.5
2022-08-27T00:08:19.474Z,0.7
2022-08-27T00:09:29.130Z,0.7
2022-08-27T00:10:38.814Z,0.7
2022-08-27T00:11:46.488Z,0.8
2022-08-27T00:12:56.162Z,0.7
2022-08-27T00:14:03.819Z,0.5
2022-08-27T00:15:13.469Z,0.8
2022-08-27T00:16:23.202Z,0.7
2022-08-27T00:17:30.821Z,0.7
2022-08-27T00:18:40.482Z,0.6
2022-08-27T00:19:49.143Z,0.4
2022-08-27T00:20:56.814Z,0.7
2022-08-27T00:22:06.528Z,0.6
2022-08-27T00:23:14.200Z,0.9
2022-08-27T00:24:23.888Z,1
2022-08-27T00:25:33.547Z,0.5
2022-08-27T00:26:43.572Z,0.5
2022-08-27T00:27:52.913Z,0.6
2022-08-27T00:29:02.598Z,0.7
2022-08-27T00:30:12.264Z,0.4
2022-08-27T00:31:27.272Z,0.9
2022-08-27T00:32:30.597Z,0.5
2022-08-27T00:33:39.275Z,0.5
2022-08-27T00:34:48.945Z,0.7
2022-08-27T00:35:56.602Z,0.5
2022-08-27T00:37:06.263Z,0.6
2022-08-27T00:38:14.942Z,0.6
2022-08-27T00:39:22.667Z,0.6
2022-08-27T00:40:32.419Z,0.8
2022-08-27T00:41:41.023Z,0.9
2022-08-27T00:42:49.669Z,0.7
2022-08-27T00:43:59.326Z,0.8
2022-08-27T00:45:08.042Z,0.9
2022-08-27T00:46:17.706Z,0.6
2022-08-27T00:47:26.364Z,0.5
2022-08-27T00:48:35.092Z,0.7
2022-08-27T00:49:44.783Z,0.6
2022-08-27T00:50:53.443Z,0.8
2022-08-27T00:52:02.120Z,0.6
2022-08-27T00:53:11.788Z,0.6
2022-08-27T00:54:21.456Z,0.7
2022-08-27T00:55:31.112Z,0.8
2022-08-27T00:56:39.817Z,0.7
2022-08-27T00:57:48.502Z,0.8
2022-08-27T00:58:58.183Z,0.7
2022-08-27T01:00:06.849Z,0.8
2022-08-27T01:01:16.556Z,0.9
2022-08-27T01:02:26.328Z,0.5
2022-08-27T01:03:33.928Z,0.8
2022-08-27T01:04:43.602Z,1
2022-08-27T01:05:53.271Z,0.9
2022-08-27T01:07:00.957Z,1.2
2022-08-27T01:08:10.856Z,1.1
2022-08-27T01:09:18.394Z,1.2
2022-08-27T01:10:27.051Z,1
2022-08-27T01:11:36.703Z,0.8
2022-08-27T01:12:45.381Z,1
2022-08-27T01:13:59.427Z,0.9
2022-08-27T01:15:04.673Z,0.8
2022-08-27T01:16:13.341Z,0.6
2022-08-27T01:17:21.006Z,1.1
2022-08-27T01:18:28.679Z,0.7
2022-08-27T01:19:37.368Z,0.8
2022-08-27T01:20:47.027Z,0.6
2022-08-27T01:21:54.679Z,0.9
2022-08-27T01:23:04.357Z,1
2022-08-27T01:24:13.024Z,0.6
2022-08-27T01:25:21.754Z,0.8
2022-08-27T01:26:31.417Z,0.7
2022-08-27T01:27:40.124Z,0.8
2022-08-27T01:28:48.786Z,0.9
2022-08-27T01:29:58.497Z,0.9
2022-08-27T01:31:06.324Z,0.8
2022-08-27T01:32:15.954Z,0.7
2022-08-27T01:33:24.611Z,0.7
2022-08-27T01:34:32.285Z,0.6
2022-08-27T01:35:41.922Z,0.8
2022-08-27T01:36:49.611Z,0.8
2022-08-27T01:37:59.238Z,0.8
2022-08-27T01:39:08.923Z,0.9
2022-08-27T01:40:18.624Z,0.8
2022-08-27T01:41:29.236Z,0.8
2022-08-27T01:42:38.914Z,0.8
2022-08-27T01:43:47.569Z,0.7
2022-08-27T01:44:57.221Z,0.7
2022-08-27T01:46:05.911Z,0.7
2022-08-27T01:47:15.567Z,0.7
2022-08-27T01:48:25.304Z,1
2022-08-27T01:49:33.993Z,0.8
2022-08-27T01:50:43.665Z,0.6
2022-08-27T01:51:52.339Z,0.9
2022-08-27T01:53:01.008Z,0.4
2022-08-27T01:54:09.698Z,0.7
2022-08-27T01:55:17.346Z,0.8
2022-08-27T01:56:27.059Z,0.9
2022-08-27T01:57:35.710Z,0.9
2022-08-27T01:58:44.386Z,0.7
2022-08-27T01:59:54.183Z,0.8
2022-08-27T02:01:01.925Z,0.6
2022-08-27T02:02:11.585Z,0.9
2022-08-27T02:03:20.204Z,0.7
2022-08-27T02:04:29.847Z,0.7
2022-08-27T02:05:43.811Z,0.9
2022-08-27T02:06:48.214Z,0.9
2022-08-27T02:07:56.915Z,0.6
2022-08-27T02:09:06.605Z,0.9
2022-08-27T02:10:15.262Z,0.7
2022-08-27T02:11:25.057Z,0.9
2022-08-27T02:12:33.700Z,0.7
2022-08-27T02:13:41.378Z,0.8
2022-08-27T02:14:51.074Z,0.8
2022-08-27T02:15:59.880Z,1.1
2022-08-27T02:17:08.472Z,0.7
2022-08-27T02:18:18.138Z,0.8
2022-08-27T02:19:26.804Z,0.9
2022-08-27T02:20:36.462Z,1.1
2022-08-27T02:21:46.195Z,0.9
2022-08-27T02:22:54.877Z,1.1
2022-08-27T02:24:04.576Z,1
2022-08-27T02:25:14.245Z,1.3
2022-08-27T02:26:22.920Z,1.6
2022-08-27T02:27:32.602Z,1.3
2022-08-27T02:28:40.310Z,0.8
2022-08-27T02:29:49.983Z,1.2
2022-08-27T02:30:58.650Z,1.5
2022-08-27T02:32:07.287Z,1.1
2022-08-27T02:33:17.945Z,1.5
2022-08-27T02:34:25.724Z,1.5
2022-08-27T02:35:35.393Z,1.3
2022-08-27T02:36:45.055Z,1.3
2022-08-27T02:37:52.716Z,1.3
2022-08-27T02:39:02.379Z,1.6
2022-08-27T02:40:11.126Z,1.4
2022-08-27T02:41:18.718Z,1.6
2022-08-27T02:42:28.387Z,1.5
2022-08-27T02:43:36.044Z,1.4
2022-08-27T02:44:44.726Z,1.7
2022-08-27T02:45:54.438Z,1.5
2022-08-27T02:47:03.124Z,1.4
2022-08-27T02:48:12.955Z,1.5
2022-08-27T02:49:21.450Z,1.2
2022-08-27T02:50:30.141Z,1.8
2022-08-27T02:51:39.819Z,1.5
2022-08-27T02:52:47.457Z,1.6
2022-08-27T02:53:57.160Z,1.3
2022-08-27T02:55:06.827Z,1.8
2022-08-27T02:56:14.471Z,1.5
2022-08-27T02:57:25.171Z,1.4
2022-08-27T02:58:33.827Z,1.6
2022-08-27T02:59:42.474Z,1.4
2022-08-27T03:00:52.160Z,2
2022-08-27T03:02:00.890Z,1.7
2022-08-27T03:03:09.515Z,1.7
2022-08-27T03:04:19.180Z,1.7
2022-08-27T03:05:27.846Z,1.5
2022-08-27T03:06:36.501Z,1.4
2022-08-27T03:07:45.158Z,1.5
2022-08-27T03:08:53.855Z,1.3
2022-08-27T03:10:03.537Z,1.5
2022-08-27T03:11:12.165Z,1.4
2022-08-27T03:12:22.249Z,1.6
2022-08-27T03:13:31.512Z,1.2
2022-08-27T03:14:39.318Z,1.4
2022-08-27T03:15:49.029Z,1.3
2022-08-27T03:16:57.660Z,1.1
2022-08-27T03:18:07.386Z,1.4
2022-08-27T03:19:21.171Z,1.1
2022-08-27T03:20:25.738Z,1
2022-08-27T03:21:34.396Z,1.3
2022-08-27T03:22:44.061Z,1.7
2022-08-27T03:23:52.798Z,1.3
2022-08-27T03:25:02.420Z,1.7
2022-08-27T03:26:12.125Z,1.5
2022-08-27T03:27:20.834Z,1
2022-08-27T03:28:30.493Z,1.1
2022-08-27T03:29:40.150Z,1.3
2022-08-27T03:30:48.807Z,1.2
2022-08-27T03:31:58.510Z,1.3
2022-08-27T03:33:07.176Z,1.2
2022-08-27T03:34:17.045Z,1.1
2022-08-27T03:35:25.526Z,1.3
2022-08-27T03:36:33.260Z,1.1
2022-08-27T03:37:43.066Z,0.6
2022-08-27T03:38:50.738Z,0.7
2022-08-27T03:39:59.443Z,0.8
2022-08-27T03:41:09.076Z,0.6
2022-08-27T03:42:17.744Z,0.8
2022-08-27T03:43:27.452Z,0.6
2022-08-27T03:44:35.117Z,0.9
2022-08-27T03:45:48.326Z,0.7
2022-08-27T03:46:54.407Z,0.7
2022-08-27T03:48:04.128Z,0.6
2022-08-27T03:49:13.828Z,0.7
2022-08-27T03:50:21.521Z,0.9
2022-08-27T03:51:30.212Z,0.4
2022-08-27T03:52:39.880Z,0.7
2022-08-27T03:53:47.546Z,0.8
2022-08-27T03:54:57.233Z,0.7
2022-08-27T03:56:06.930Z,0.4
2022-08-27T03:57:15.599Z,0.5
2022-08-27T03:58:25.275Z,0.8
2022-08-27T03:59:32.956Z,0.7
2022-08-27T04:00:41.655Z,0.8
2022-08-27T04:01:51.427Z,0.5
2022-08-27T04:03:00.035Z,0.6
2022-08-27T04:04:09.687Z,0.7
2022-08-27T04:05:18.347Z,0.5
2022-08-27T04:06:27.025Z,0.8
2022-08-27T04:07:36.698Z,0.7
2022-08-27T04:08:45.367Z,0.6
2022-08-27T04:09:54.027Z,0.6
2022-08-27T04:11:02.710Z,0.8
2022-08-27T04:12:11.403Z,0.8
2022-08-27T04:13:21.075Z,0.7
2022-08-27T04:14:30.729Z,0.7
2022-08-27T04:15:40.619Z,0.4
2022-08-27T04:16:50.742Z,0.7
2022-08-27T04:17:58.778Z,0.6
2022-08-27T04:19:08.876Z,0.7
2022-08-27T04:20:34.873Z,0.7
2022-08-27T04:21:27.193Z,0.7
2022-08-27T04:22:35.870Z,0.7
2022-08-27T04:23:44.578Z,0.6
2022-08-27T04:24:52.249Z,0.6
2022-08-27T04:26:01.920Z,0.6
2022-08-27T04:27:10.593Z,0.7
2022-08-27T04:28:19.259Z,0.6
2022-08-27T04:29:28.931Z,0.7
2022-08-27T04:30:36.621Z,0.8
2022-08-27T04:31:46.303Z,0.7
2022-08-27T04:32:54.962Z,0.6
2022-08-27T04:34:02.631Z,0.7
2022-08-27T04:35:12.318Z,0.8
2022-08-27T04:36:21.964Z,0.7
2022-08-27T04:37:30.632Z,0.6
2022-08-27T04:38:40.301Z,0.6
2022-08-27T04:39:50.393Z,0.7
2022-08-27T04:40:59.708Z,0.8
2022-08-27T04:42:07.364Z,0.6
2022-08-27T04:43:17.737Z,0.6
2022-08-27T04:44:26.678Z,0.6
2022-08-27T04:45:35.344Z,0.7
2022-08-27T04:46:48.460Z,0.6
2022-08-27T04:47:55.722Z,0.6
2022-08-27T04:49:03.391Z,0.6
2022-08-27T04:50:14.041Z,0.5
2022-08-27T04:51:23.696Z,0.5
2022-08-27T04:52:31.377Z,0.6
2022-08-27T04:53:40.049Z,0.8
2022-08-27T04:54:48.702Z,0.6
2022-08-27T04:55:57.371Z,0.6
2022-08-27T04:57:07.026Z,0.7
2022-08-27T04:58:15.733Z,0.5
2022-08-27T04:59:25.403Z,0.4
2022-08-27T05:00:34.060Z,0.7
2022-08-27T05:01:42.770Z,0.6
2022-08-27T05:02:52.407Z,0.5
2022-08-27T05:04:01.083Z,0.7
2022-08-27T05:05:14.246Z,0.5
2022-08-27T05:06:21.430Z,0.7
2022-08-27T05:07:29.106Z,0.7
2022-08-27T05:08:38.800Z,0.5
2022-08-27T05:09:47.529Z,0.6
2022-08-27T05:10:57.216Z,0.6
2022-08-27T05:12:06.888Z,0.6
2022-08-27T05:13:14.542Z,0.7
2022-08-27T05:14:23.220Z,0.6
2022-08-27T05:15:32.957Z,0.6
2022-08-27T05:16:40.574Z,0.6
2022-08-27T05:17:51.233Z,0.7
2022-08-27T05:18:59.894Z,0.5
2022-08-27T05:20:08.585Z,0.6
2022-08-27T05:21:18.263Z,0.8
2022-08-27T05:22:25.927Z,0.6
2022-08-27T05:23:35.759Z,0.4
2022-08-27T05:24:49.998Z,0.5
2022-08-27T05:25:54.862Z,0.6
2022-08-27T05:27:04.547Z,0.4
2022-08-27T05:28:13.215Z,0.5
2022-08-27T05:29:20.913Z,0.4
2022-08-27T05:30:30.611Z,0.5
2022-08-27T05:31:38.377Z,0.6
2022-08-27T05:32:47.031Z,0.5
2022-08-27T05:33:56.692Z,0.5
2022-08-27T05:35:05.339Z,0.5
2022-08-27T05:36:15.019Z,0.4
2022-08-27T05:37:23.663Z,0.5
2022-08-27T05:38:32.374Z,0.4
2022-08-27T05:39:42.096Z,0.2
2022-08-27T05:40:49.746Z,0.7
2022-08-27T05:41:58.417Z,0.6
2022-08-27T05:43:08.277Z,0.4
2022-08-27T05:44:39.936Z,0.4
2022-08-27T05:45:28.669Z,0.4
2022-08-27T05:46:37.355Z,0.3
2022-08-27T05:47:46.988Z,0.3
2022-08-27T05:48:55.658Z,0.7
2022-08-27T05:50:04.334Z,0.4
2022-08-27T05:51:16.144Z,0.5
2022-08-27T05:52:25.696Z,0.2
2022-08-27T05:53:34.351Z,0.2
2022-08-27T05:54:44.029Z,0.5
2022-08-27T05:55:51.705Z,0.3
2022-08-27T05:57:01.366Z,0.5
2022-08-27T05:58:10.113Z,0.5
2022-08-27T05:59:19.695Z,0.4
2022-08-27T06:00:29.397Z,0.3
2022-08-27T06:01:38.084Z,0.4
2022-08-27T06:02:46.805Z,0.4
2022-08-27T06:03:56.401Z,0.4
2022-08-27T06:05:06.125Z,0.5
2022-08-27T06:06:15.750Z,0.4
2022-08-27T06:07:24.448Z,0.3
2022-08-27T06:08:32.114Z,0.4
2022-08-27T06:09:41.797Z,0.5
2022-08-27T06:10:49.448Z,0.5
2022-08-27T06:11:58.116Z,0.5
2022-08-27T06:13:07.783Z,0.3
2022-08-27T06:14:15.444Z,0.3
2022-08-27T06:15:25.130Z,0.5
2022-08-27T06:16:33.847Z,0.3
2022-08-27T06:17:41.474Z,0.4
2022-08-27T06:18:51.190Z,0.3
2022-08-27T06:19:58.825Z,0.5
2022-08-27T06:21:07.480Z,0.3
2022-08-27T06:22:17.146Z,0.4
2022-08-27T06:23:28.003Z,0.3
2022-08-27T06:24:37.588Z,0.6
2022-08-27T06:25:47.321Z,0.3
2022-08-27T06:26:56.008Z,0.4
2022-08-27T06:28:06.651Z,0.4
2022-08-27T06:29:15.340Z,0.5
2022-08-27T06:30:24.029Z,0.4
2022-08-27T06:31:33.764Z,0.3
2022-08-27T06:32:41.366Z,0.3
2022-08-27T06:33:51.033Z,0.3
2022-08-27T06:34:59.682Z,0.5
2022-08-27T06:36:08.362Z,0.4
2022-08-27T06:37:18.032Z,0.4
2022-08-27T06:38:26.698Z,0.4
2022-08-27T06:39:35.355Z,0.3
2022-08-27T06:40:45.012Z,0.3
2022-08-27T06:41:53.710Z,0.3
2022-08-27T06:43:03.388Z,0.4
2022-08-27T06:44:12.103Z,0.4
2022-08-27T06:45:20.779Z,0.4
2022-08-27T06:46:30.455Z,0.3
2022-08-27T06:47:38.322Z,0.4
2022-08-27T06:48:46.983Z,0.4
2022-08-27T06:49:56.653Z,0.5
2022-08-27T06:51:04.300Z,0.5
2022-08-27T06:52:13.995Z,0.4
2022-08-27T06:53:24.417Z,0.3
2022-08-27T06:54:31.330Z,0.3
2022-08-27T06:55:40.979Z,0.3
2022-08-27T06:56:49.660Z,0.2
2022-08-27T06:57:58.319Z,0.5
2022-08-27T06:59:11.450Z,0.4
2022-08-27T07:00:16.650Z,0.3
2022-08-27T07:01:26.358Z,0.5
2022-08-27T07:02:34.979Z,0.5
2022-08-27T07:03:43.682Z,0.5
2022-08-27T07:04:53.404Z,0.5
2022-08-27T07:06:02.059Z,0.4
2022-08-27T07:07:11.719Z,0.5
2022-08-27T07:08:21.383Z,0.5
2022-08-27T07:09:29.029Z,0.4
2022-08-27T07:10:38.718Z,0.6
2022-08-27T07:11:47.391Z,0.3
2022-08-27T07:12:55.054Z,0.4
2022-08-27T07:14:04.719Z,0.4
2022-08-27T07:15:12.425Z,0.5
2022-08-27T07:16:22.724Z,0.4
2022-08-27T07:17:31.822Z,0.4
2022-08-27T07:18:41.462Z,0.3
2022-08-27T07:19:51.238Z,0.5
2022-08-27T07:20:59.924Z,0.4
2022-08-27T07:22:07.688Z,0.8
2022-08-27T07:23:17.347Z,0.5
2022-08-27T07:24:25.052Z,0.5
2022-08-27T07:25:33.709Z,0.5
2022-08-27T07:26:43.373Z,0.5
2022-08-27T07:27:52.184Z,0.5
2022-08-27T07:29:01.886Z,0.8
2022-08-27T07:30:10.533Z,0.8
2022-08-27T07:31:19.287Z,0.4
2022-08-27T07:32:30.609Z,0.5
2022-08-27T07:33:38.527Z,0.3
2022-08-27T07:34:47.183Z,0.3
2022-08-27T07:35:56.855Z,0.5
2022-08-27T07:37:04.535Z,0.3
2022-08-27T07:38:14.239Z,0.7
2022-08-27T07:39:22.916Z,0.6
2022-08-27T07:40:30.662Z,0.4
2022-08-27T07:41:40.257Z,0.5
2022-08-27T07:42:48.934Z,0.3
2022-08-27T07:43:57.591Z,0.4
2022-08-27T07:45:07.297Z,0.5
2022-08-27T07:46:17.025Z,0.4
2022-08-27T07:47:26.619Z,0.6
2022-08-27T07:48:36.449Z,0.5
2022-08-27T07:49:45.948Z,0.5
2022-08-27T07:50:54.823Z,0.4
2022-08-27T07:52:02.494Z,0.5
2022-08-27T07:53:12.156Z,0.4
2022-08-27T07:54:20.820Z,0.4
2022-08-27T07:55:29.564Z,0.5
2022-08-27T07:56:39.323Z,0.4
2022-08-27T07:57:48.021Z,0.4
2022-08-27T07:58:57.691Z,0.3
2022-08-27T08:00:06.361Z,0.5
2022-08-27T08:01:15.058Z,0.5
2022-08-27T08:02:24.739Z,0.4
2022-08-27T08:03:33.383Z,0.4
2022-08-27T08:04:43.064Z,0.4
2022-08-27T08:05:52.710Z,0.5
2022-08-27T08:07:01.383Z,0.4
2022-08-27T08:08:11.240Z,0.4
2022-08-27T08:09:19.758Z,0.3
2022-08-27T08:10:27.415Z,0.4
2022-08-27T08:11:37.074Z,0.4
2022-08-27T08:12:45.754Z,0.5
2022-08-27T08:13:54.471Z,0.6
2022-08-27T08:15:04.160Z,0.5
2022-08-27T08:16:12.825Z,0.4
2022-08-27T08:17:22.535Z,0.5
2022-08-27T08:18:31.186Z,0.7
2022-08-27T08:19:39.883Z,0.5
2022-08-27T08:20:57.907Z,0.6
2022-08-27T08:22:02.569Z,0.4
2022-08-27T08:23:10.809Z,0.4
2022-08-27T08:24:20.479Z,0.3
2022-08-27T08:25:29.168Z,0.5
2022-08-27T08:26:39.819Z,0.5
2022-08-27T08:27:49.505Z,0.4
2022-08-27T08:28:58.171Z,0.4
2022-08-27T08:30:07.865Z,0.3
2022-08-27T08:31:15.750Z,0.5
2022-08-27T08:32:25.346Z,0.7
2022-08-27T08:33:35.033Z,0.3
2022-08-27T08:34:43.726Z,0.5
2022-08-27T08:35:53.398Z,0.5
2022-08-27T08:37:02.105Z,0.4
2022-08-27T08:38:09.857Z,0.3
2022-08-27T08:39:19.406Z,0.3
2022-08-27T08:40:28.104Z,0.1
2022-08-27T08:41:36.753Z,0.6
2022-08-27T08:42:50.487Z,0.5
2022-08-27T08:43:56.076Z,0.2
2022-08-27T08:45:05.730Z,0.4
2022-08-27T08:46:14.639Z,0.5
2022-08-27T08:47:23.048Z,0.3
2022-08-27T08:48:32.739Z,0.4
2022-08-27T08:49:40.440Z,0.5
2022-08-27T08:50:49.048Z,0.9
2022-08-27T08:51:58.696Z,0.5
2022-08-27T08:53:07.377Z,0.4
2022-08-27T08:54:17.197Z,0.3
2022-08-27T08:55:26.865Z,0.4
2022-08-27T08:56:35.522Z,0.4
2022-08-27T08:57:45.187Z,0.3
2022-08-27T08:58:53.849Z,0.3
2022-08-27T09:00:03.533Z,0.4
2022-08-27T09:01:13.201Z,0.1
2022-08-27T09:02:21.861Z,0.3
2022-08-27T09:03:31.606Z,0.2
2022-08-27T09:04:41.231Z,0.3
2022-08-27T09:05:49.922Z,0.4
2022-08-27T09:06:59.573Z,0.3
2022-08-27T09:08:31.326Z,0.5
2022-08-27T09:09:19.858Z,0.5
2022-08-27T09:10:29.542Z,0.2
2022-08-27T09:11:38.235Z,0.3
2022-08-27T09:12:47.918Z,0.4
2022-08-27T09:13:57.657Z,0.5
2022-08-27T09:15:06.318Z,0.6
2022-08-27T09:16:17.014Z,0.4
2022-08-27T09:17:24.681Z,0.4
2022-08-27T09:18:35.340Z,0.2
2022-08-27T09:19:45.017Z,0.3
2022-08-27T09:20:52.656Z,0.4
2022-08-27T09:22:02.343Z,0.2
2022-08-27T09:23:12.025Z,0.2
2022-08-27T09:24:19.671Z,0.3
2022-08-27T09:25:29.343Z,0.4
2022-08-27T09:26:37.152Z,0.3
2022-08-27T09:27:45.646Z,0.3
2022-08-27T09:28:55.321Z,0.2
2022-08-27T09:30:03.987Z,0.4
2022-08-27T09:31:13.706Z,0.3
2022-08-27T09:32:22.294Z,0.3
2022-08-27T09:33:40.950Z,0.3
2022-08-27T09:34:42.796Z,0.4
2022-08-27T09:35:51.439Z,0.3
2022-08-27T09:37:01.088Z,0.3
2022-08-27T09:38:10.912Z,0.3
2022-08-27T09:39:18.436Z,0.4
2022-08-27T09:40:28.222Z,0.5
2022-08-27T09:41:36.814Z,0.4
2022-08-27T09:42:46.458Z,0.4
2022-08-27T09:43:57.133Z,0.3
2022-08-27T09:45:04.820Z,0.2
2022-08-27T09:46:14.573Z,0.3
2022-08-27T09:47:23.158Z,0.3
2022-08-27T09:48:31.839Z,0.5
2022-08-27T09:49:41.487Z,0.4
2022-08-27T09:50:50.162Z,0.3
2022-08-27T09:51:59.851Z,0.3
2022-08-27T09:53:08.511Z,0.2
2022-08-27T09:54:16.157Z,0.2
2022-08-27T09:55:25.830Z,0.4
2022-08-27T09:56:34.482Z,0.4
2022-08-27T09:57:44.372Z,0.4
2022-08-27T09:58:54.044Z,0.6
2022-08-27T10:00:01.702Z,0.2
2022-08-27T10:01:11.449Z,0.9
2022-08-27T10:02:21.017Z,0.4
2022-08-27T10:03:33.324Z,0.3
2022-08-27T10:04:50.876Z,0.5
2022-08-27T10:05:49.942Z,0.2
2022-08-27T10:06:58.598Z,0.5
2022-08-27T10:08:08.257Z,0.2
2022-08-27T10:09:16.948Z,0.2
2022-08-27T10:10:26.612Z,0.4
2022-08-27T10:11:35.288Z,0.4
2022-08-27T10:12:42.961Z,0.2
2022-08-27T10:13:52.643Z,0.3
2022-08-27T10:15:02.320Z,0.2
2022-08-27T10:16:11.115Z,0.4
2022-08-27T10:17:20.695Z,0.4
2022-08-27T10:18:28.361Z,0.5
2022-08-27T10:19:38.038Z,0.4
2022-08-27T10:20:47.733Z,0.4
2022-08-27T10:21:57.411Z,0.4
2022-08-27T10:23:06.080Z,0.4
2022-08-27T10:24:13.737Z,0.4
2022-08-27T10:25:22.413Z,0.3
2022-08-27T10:26:33.883Z,0.3
2022-08-27T10:27:41.723Z,0.5
2022-08-27T10:28:50.379Z,0.4
2022-08-27T10:30:00.035Z,0.2
2022-08-27T10:31:08.707Z,0.8
2022-08-27T10:32:18.384Z,0.4
2022-08-27T10:33:28.054Z,0.4
2022-08-27T10:34:37.695Z,0.2
2022-08-27T10:35:48.244Z,0.4
2022-08-27T10:36:56.977Z,0.2
2022-08-27T10:38:06.752Z,0.5
2022-08-27T10:39:16.408Z,0.5
2022-08-27T10:40:24.107Z,0.3
2022-08-27T10:41:33.761Z,0.1
2022-08-27T10:42:42.411Z,0.5
2022-08-27T10:43:51.115Z,0.4
2022-08-27T10:45:00.796Z,0.3
2022-08-27T10:46:09.510Z,0.3
2022-08-27T10:47:19.200Z,0.3
2022-08-27T10:48:27.851Z,0.4
2022-08-27T10:49:36.540Z,0.4
2022-08-27T10:50:46.230Z,0.5
2022-08-27T10:51:53.888Z,0.2
2022-08-27T10:53:02.549Z,0.3
2022-08-27T10:54:12.196Z,0.4
2022-08-27T10:55:22.997Z,0.3
2022-08-27T10:56:32.680Z,0.5
2022-08-27T10:57:55.449Z,0.4
2022-08-27T10:58:50.959Z,0.4
2022-08-27T11:00:00.651Z,0.3
2022-08-27T11:01:09.529Z,0.3
2022-08-27T11:02:18.183Z,0.3
2022-08-27T11:03:32.319Z,0.3
2022-08-27T11:04:38.585Z,0.3
2022-08-27T11:05:48.287Z,0.3
2022-08-27T11:06:57.983Z,0.3
2022-08-27T11:08:07.699Z,0.2
2022-08-27T11:09:17.355Z,0.2
2022-08-27T11:10:25.980Z,0.3
2022-08-27T11:12:46.283Z,0.3
2022-08-27T11:13:56.911Z,0.3
2022-08-27T11:15:07.944Z,0.4
2022-08-27T11:16:14.307Z,0.4
2022-08-27T11:17:22.970Z,0.4
2022-08-27T11:18:32.652Z,0.3
2022-08-27T11:19:40.309Z,0.4
2022-08-27T11:20:48.973Z,0.4
2022-08-27T11:21:58.627Z,0.4
2022-08-27T11:23:06.281Z,0.6
2022-08-27T11:24:15.995Z,0.3
2022-08-27T11:25:24.653Z,0.2
2022-08-27T11:26:33.317Z,0.3
2022-08-27T11:27:42.987Z,0.4
2022-08-27T11:28:51.649Z,0.5
2022-08-27T11:30:01.300Z,0.2
2022-08-27T11:31:11.006Z,0.2
2022-08-27T11:32:18.654Z,0.2
2022-08-27T11:33:28.343Z,0.6
2022-08-27T11:34:37.018Z,0.3
2022-08-27T11:35:44.688Z,0.4
2022-08-27T11:36:54.738Z,0.3
2022-08-27T11:38:03.067Z,0.4
2022-08-27T11:39:12.712Z,0.4
2022-08-27T11:40:23.394Z,0.3
2022-08-27T11:41:33.362Z,0.2
2022-08-27T11:42:42.775Z,0.2
2022-08-27T11:43:50.409Z,0.3
2022-08-27T11:45:00.078Z,0.1
2022-08-27T11:46:07.705Z,0.4
2022-08-27T11:47:15.451Z,0.3
2022-08-27T11:48:25.077Z,0.2
2022-08-27T11:49:32.730Z,0.3
2022-08-27T11:50:42.401Z,0.1
2022-08-27T11:51:52.057Z,0.3
2022-08-27T11:52:59.751Z,0.2
2022-08-27T11:54:09.408Z,0.5
2022-08-27T11:55:18.061Z,0.4
2022-08-27T11:56:25.721Z,0.2
2022-08-27T11:57:35.389Z,0.3
2022-08-27T11:58:52.937Z,0.3
2022-08-27T11:59:54.724Z,0.3
2022-08-27T12:01:04.972Z,0.3
2022-08-27T12:02:12.078Z,0.3
2022-08-27T12:03:21.795Z,0.1
2022-08-27T12:04:30.660Z,0.3
2022-08-27T12:05:39.234Z,0.3
2022-08-27T12:06:48.939Z,0.2
2022-08-27T12:07:57.604Z,0.5
2022-08-27T12:09:07.275Z,0.3
2022-08-27T12:10:16.954Z,0.3
2022-08-27T12:11:25.626Z,0.4
2022-08-27T12:12:35.293Z,0.3
2022-08-27T12:13:43.964Z,0.3
2022-08-27T12:14:53.624Z,0.3
2022-08-27T12:16:03.337Z,0.1
2022-08-27T12:17:10.979Z,0.2
2022-08-27T12:18:19.659Z,0.6
2022-08-27T12:19:29.310Z,0.3
2022-08-27T12:20:38.969Z,0.3
2022-08-27T12:21:47.643Z,0.4
2022-08-27T12:22:56.304Z,0.3
2022-08-27T12:24:04.967Z,0.2
2022-08-27T12:25:14.685Z,0.3
2022-08-27T12:26:22.403Z,0.1
2022-08-27T12:27:32.132Z,0.2
2022-08-27T12:28:41.789Z,0.3
2022-08-27T12:29:49.459Z,0.5
2022-08-27T12:30:59.105Z,0.1
2022-08-27T12:32:08.780Z,0.2
2022-08-27T12:33:16.467Z,0.3
2022-08-27T12:34:26.123Z,0.2
2022-08-27T12:35:34.789Z,0.2
2022-08-27T12:36:43.456Z,0.2
2022-08-27T12:37:53.931Z,0.3
2022-08-27T12:39:02.825Z,0.3
2022-08-27T12:40:13.540Z,0.3
2022-08-27T12:41:23.167Z,0.3
2022-08-27T12:42:30.836Z,0.1
2022-08-27T12:43:39.575Z,0.1
2022-08-27T12:44:47.262Z,0.3
2022-08-27T12:45:55.928Z,0.3
2022-08-27T12:47:05.668Z,0.2
2022-08-27T12:48:13.239Z,0
2022-08-27T12:49:36.182Z,0.3
2022-08-27T12:50:33.594Z,0.3
2022-08-27T12:51:43.283Z,0.2
2022-08-27T12:52:52.956Z,0.2
2022-08-27T12:54:01.624Z,0.2
2022-08-27T12:55:10.280Z,0.1
2022-08-27T12:56:19.972Z,0.1
2022-08-27T12:57:28.642Z,0.3
2022-08-27T12:58:38.310Z,0.1
2022-08-27T12:59:46.964Z,0
2022-08-27T13:00:54.677Z,0.3
2022-08-27T13:02:04.414Z,0.3
2022-08-27T13:03:13.027Z,0
2022-08-27T13:04:20.691Z,0.2
2022-08-27T13:05:29.359Z,0.2
2022-08-27T13:06:38.030Z,0.2
2022-08-27T13:07:47.920Z,0.3
2022-08-27T13:08:57.576Z,0.2
2022-08-27T13:10:06.325Z,0.2
2022-08-27T13:11:15.919Z,0.1
2022-08-27T13:12:23.584Z,0.4
2022-08-27T13:13:33.260Z,0.2
2022-08-27T13:14:43.991Z,0.2
2022-08-27T13:15:52.728Z,0.2
2022-08-27T13:17:02.306Z,0.1
2022-08-27T13:18:11.046Z,0
2022-08-27T13:19:18.640Z,0.2
2022-08-27T13:20:28.305Z,0.2
2022-08-27T13:21:37.977Z,0.3
2022-08-27T13:22:47.617Z,0.2
2022-08-27T13:23:57.271Z,0.2
2022-08-27T13:25:04.971Z,0.1
2022-08-27T13:26:13.616Z,0.2
2022-08-27T13:27:23.286Z,0.1
2022-08-27T13:28:30.952Z,0.2
2022-08-27T13:29:40.619Z,0.1
2022-08-27T13:30:48.324Z,0.3
2022-08-27T13:31:56.974Z,0.5
2022-08-27T13:33:05.633Z,0.1
2022-08-27T13:34:13.289Z,0.2
2022-08-27T13:35:22.950Z,0.1
2022-08-27T13:36:32.219Z,0.3
2022-08-27T13:37:39.283Z,0.1
2022-08-27T13:38:50.319Z,0.2
2022-08-27T13:39:57.619Z,0.2
2022-08-27T13:41:07.260Z,0.1
2022-08-27T13:42:15.931Z,0.1
2022-08-27T13:43:26.578Z,0.2
2022-08-27T13:44:37.266Z,0.2
2022-08-27T13:45:44.924Z,0
2022-08-27T13:46:54.708Z,0.1
2022-08-27T13:48:03.431Z,0.4
2022-08-27T13:49:11.059Z,0.2
2022-08-27T13:50:20.743Z,0.1
2022-08-27T13:51:29.404Z,0.1
2022-08-27T13:52:38.074Z,0.2
2022-08-27T13:53:47.743Z,0.1
2022-08-27T13:54:56.412Z,0.2
2022-08-27T13:56:06.083Z,0.2
2022-08-27T13:57:15.738Z,0.2
2022-08-27T13:58:24.398Z,0.1
2022-08-27T13:59:34.079Z,0.2
2022-08-27T14:00:42.727Z,0.1
2022-08-27T14:01:52.500Z,0.3
2022-08-27T14:03:02.155Z,0.2
2022-08-27T14:04:11.732Z,0
2022-08-27T14:05:21.465Z,0.2
2022-08-27T14:06:31.392Z,0.2
2022-08-27T14:07:39.811Z,0.2
2022-08-27T14:08:49.486Z,0.2
2022-08-27T14:09:59.148Z,0
2022-08-27T14:11:08.827Z,0.2
2022-08-27T14:12:18.487Z,0.1
2022-08-27T14:13:27.257Z,0.1
2022-08-27T14:14:36.927Z,0.4
2022-08-27T14:15:45.648Z,0.1
2022-08-27T14:16:53.241Z,0.1
2022-08-27T14:18:02.964Z,0.1
2022-08-27T14:19:11.655Z,0.3
2022-08-27T14:20:21.317Z,0.2
2022-08-27T14:21:31.003Z,0.2
2022-08-27T14:22:38.691Z,0.2
2022-08-27T14:23:48.345Z,0.3
2022-08-27T14:24:56.987Z,0.1
2022-08-27T14:26:04.639Z,0.3
2022-08-27T14:27:14.306Z,0.4
2022-08-27T14:28:22.980Z,0.2
2022-08-27T14:29:32.668Z,0.1
2022-08-27T14:30:42.325Z,0.2
2022-08-27T14:31:51.049Z,0.1
2022-08-27T14:33:00.851Z,0.1
2022-08-27T14:34:10.358Z,0.1
2022-08-27T14:35:24.868Z,0.2
2022-08-27T14:36:30.681Z,0.1
2022-08-27T14:37:40.387Z,0.2
2022-08-27T14:38:50.065Z,0.1
2022-08-27T14:39:57.818Z,0.2
2022-08-27T14:41:07.441Z,0.2
2022-08-27T14:42:15.164Z,0.1
2022-08-27T14:43:23.839Z,0.2
2022-08-27T14:44:33.496Z,0.1
2022-08-27T14:45:43.171Z,0.2
2022-08-27T14:46:52.872Z,0.1
2022-08-27T14:48:02.599Z,0.3
2022-08-27T14:49:11.152Z,0.3
2022-08-27T14:50:20.821Z,0.3
2022-08-27T14:51:28.621Z,0.3
2022-08-27T14:52:38.289Z,0.3
2022-08-27T14:53:47.946Z,0.2
2022-08-27T14:54:56.646Z,0.1
2022-08-27T14:56:06.311Z,0.2
2022-08-27T14:57:15.983Z,0.2
2022-08-27T14:58:25.647Z,0.1
2022-08-27T14:59:36.303Z,0.1
2022-08-27T15:00:43.962Z,0.2
2022-08-27T15:01:53.692Z,0.1
2022-08-27T15:03:03.304Z,0.2
2022-08-27T15:04:11.965Z,0.2
2022-08-27T15:05:22.474Z,0.3
2022-08-27T15:06:31.277Z,0
2022-08-27T15:07:40.960Z,0.2
2022-08-27T15:08:51.614Z,0.1
2022-08-27T15:10:00.686Z,0.1
2022-08-27T15:11:08.928Z,0.4
2022-08-27T15:12:25.695Z,0.1
2022-08-27T15:13:28.214Z,0.5
2022-08-27T15:14:37.959Z,0.1
2022-08-27T15:15:46.696Z,0.3
2022-08-27T15:16:55.317Z,0.2
2022-08-27T15:18:05.048Z,0.1
2022-08-27T15:19:12.629Z,0.4
2022-08-27T15:20:22.305Z,0.1
2022-08-27T15:21:31.968Z,0.4
2022-08-27T15:22:43.887Z,0.3
2022-08-27T15:23:51.321Z,0.5
2022-08-27T15:24:59.945Z,0.2
2022-08-27T15:26:09.611Z,0.2
2022-08-27T15:27:19.304Z,0.1
2022-08-27T15:28:27.955Z,0.6
2022-08-27T15:29:37.636Z,0.4
2022-08-27T15:30:47.365Z,0.2
2022-08-27T15:31:56.033Z,0.4
2022-08-27T15:33:05.703Z,0.1
2022-08-27T15:34:14.375Z,0.1
2022-08-27T15:35:22.046Z,0.3
2022-08-27T15:36:31.699Z,0.3
2022-08-27T15:37:40.384Z,0
2022-08-27T15:38:50.053Z,0.3
2022-08-27T15:39:58.927Z,0.4
2022-08-27T15:41:07.365Z,0.3
2022-08-27T15:42:16.019Z,0.2
2022-08-27T15:43:23.699Z,0.4
2022-08-27T15:44:33.349Z,0.3
2022-08-27T15:45:42.025Z,0.5
2022-08-27T15:46:49.770Z,0.3
2022-08-27T15:47:59.369Z,0.3
2022-08-27T15:49:08.067Z,0.3
2022-08-27T15:50:17.741Z,0.1
2022-08-27T15:51:27.392Z,0.4
2022-08-27T15:52:40.564Z,0.3
2022-08-27T15:53:47.714Z,0.3